createdAt,value
2023-05-01T00:00:47.856Z,446.00
2023-05-01T00:01:47.854Z,447.00
2023-05-01T00:02:48.010Z,449.00
2023-05-01T00:03:48.108Z,449.00
2023-05-01T00:04:47.991Z,450.00
2023-05-01T00:05:48.470Z,452.00
2023-05-01T00:06:48.271Z,449.00
2023-05-01T00:07:48.095Z,451.00
2023-05-01T00:08:48.098Z,452.00
2023-05-01T00:09:48.103Z,453.00
2023-05-01T00:10:48.384Z,454.00
2023-05-01T00:11:48.160Z,451.00
2023-05-01T00:12:48.240Z,454.00
2023-05-01T00:13:48.244Z,456.00
2023-05-01T00:14:48.234Z,456.00
2023-05-01T00:15:48.398Z,455.00
2023-05-01T00:16:48.520Z,459.00
2023-05-01T00:17:48.381Z,456.00
2023-05-01T00:18:48.423Z,455.00
2023-05-01T00:19:48.435Z,459.00
2023-05-01T00:20:48.480Z,456.00
2023-05-01T00:21:48.713Z,454.00
2023-05-01T00:22:48.526Z,454.00
2023-05-01T00:23:48.514Z,454.00
2023-05-01T00:24:48.570Z,451.00
2023-05-01T00:25:48.568Z,451.00
2023-05-01T00:26:48.580Z,453.00
2023-05-01T00:27:48.585Z,451.00
2023-05-01T00:28:48.648Z,450.00
2023-05-01T00:29:48.654Z,449.00
2023-05-01T00:30:48.669Z,449.00
2023-05-01T00:31:48.825Z,449.00
2023-05-01T00:32:48.789Z,451.00
2023-05-01T00:33:48.744Z,455.00
2023-05-01T00:34:48.737Z,454.00
2023-05-01T00:35:48.897Z,455.00
2023-05-01T00:36:50.035Z,453.00
2023-05-01T00:37:48.811Z,452.00
2023-05-01T00:38:48.817Z,452.00
2023-05-01T00:39:48.822Z,455.00
2023-05-01T00:40:48.887Z,452.00
2023-05-01T00:41:48.839Z,454.00
2023-05-01T00:42:48.846Z,453.00
2023-05-01T00:43:48.886Z,454.00
2023-05-01T00:44:48.841Z,455.00
2023-05-01T00:45:48.898Z,453.00
2023-05-01T00:46:48.851Z,452.00
2023-05-01T00:47:48.907Z,452.00
2023-05-01T00:48:48.856Z,453.00
2023-05-01T00:49:48.857Z,451.00
2023-05-01T00:50:48.820Z,452.00
2023-05-01T00:51:48.898Z,451.00
2023-05-01T00:52:48.828Z,450.00
2023-05-01T00:53:48.882Z,451.00
2023-05-01T00:54:48.895Z,450.00
2023-05-01T00:55:48.904Z,449.00
2023-05-01T00:56:48.896Z,451.00
2023-05-01T00:57:48.903Z,452.00
2023-05-01T00:58:48.895Z,451.00
2023-05-01T00:59:48.938Z,451.00
2023-05-01T01:00:48.956Z,451.00
2023-05-01T01:01:48.980Z,450.00
2023-05-01T01:02:49.005Z,450.00
2023-05-01T01:03:48.980Z,452.00
2023-05-01T01:04:49.131Z,452.00
2023-05-01T01:05:49.040Z,453.00
2023-05-01T01:06:49.210Z,453.00
2023-05-01T01:07:49.049Z,451.00
2023-05-01T01:08:49.126Z,451.00
2023-05-01T01:09:49.083Z,450.00
2023-05-01T01:10:49.139Z,449.00
2023-05-01T01:11:49.105Z,451.00
2023-05-01T01:12:49.109Z,455.00
2023-05-01T01:13:49.884Z,454.00
2023-05-01T01:14:49.118Z,454.00
2023-05-01T01:15:49.389Z,455.00
2023-05-01T01:16:49.370Z,453.00
2023-05-01T01:17:49.169Z,452.00
2023-05-01T01:18:49.109Z,452.00
2023-05-01T01:19:49.173Z,450.00
2023-05-01T01:20:49.162Z,451.00
2023-05-01T01:21:49.158Z,450.00
2023-05-01T01:22:49.150Z,450.00
2023-05-01T01:23:49.142Z,449.00
2023-05-01T01:24:49.154Z,449.00
2023-05-01T01:25:49.178Z,449.00
2023-05-01T01:26:49.136Z,447.00
2023-05-01T01:27:49.132Z,446.00
2023-05-01T01:28:49.156Z,445.00
2023-05-01T01:29:49.167Z,443.00
2023-05-01T01:30:49.189Z,446.00
2023-05-01T01:31:49.182Z,445.00
2023-05-01T01:32:49.170Z,447.00
2023-05-01T01:33:49.212Z,448.00
2023-05-01T01:34:49.121Z,450.00
2023-05-01T01:35:49.212Z,451.00
2023-05-01T01:36:49.155Z,450.00
2023-05-01T01:37:49.118Z,452.00
2023-05-01T01:38:49.120Z,451.00
2023-05-01T01:39:49.164Z,452.00
2023-05-01T01:40:49.096Z,453.00
2023-05-01T01:41:49.142Z,456.00
2023-05-01T01:42:49.106Z,455.00
2023-05-01T01:43:49.092Z,456.00
2023-05-01T01:44:49.213Z,456.00
2023-05-01T01:45:49.130Z,454.00
2023-05-01T01:46:49.172Z,454.00
2023-05-01T01:47:49.181Z,455.00
2023-05-01T01:48:49.100Z,451.00
2023-05-01T01:49:49.090Z,451.00
2023-05-01T01:50:49.112Z,451.00
2023-05-01T01:51:49.110Z,449.00
2023-05-01T01:52:49.112Z,450.00
2023-05-01T01:53:49.122Z,450.00
2023-05-01T01:54:49.105Z,449.00
2023-05-01T01:55:49.450Z,449.00
2023-05-01T01:56:49.072Z,452.00
2023-05-01T01:57:49.089Z,450.00
2023-05-01T01:58:49.100Z,451.00
2023-05-01T01:59:49.111Z,452.00
2023-05-01T02:00:49.080Z,451.00
2023-05-01T02:01:49.178Z,450.00
2023-05-01T02:02:49.246Z,452.00
2023-05-01T02:03:49.216Z,455.00
2023-05-01T02:04:49.149Z,456.00
2023-05-01T02:05:49.416Z,455.00
2023-05-01T02:06:49.195Z,455.00
2023-05-01T02:07:49.110Z,456.00
2023-05-01T02:08:49.116Z,458.00
2023-05-01T02:09:49.111Z,457.00
2023-05-01T02:10:49.441Z,458.00
2023-05-01T02:11:49.109Z,456.00
2023-05-01T02:12:49.174Z,456.00
2023-05-01T02:13:49.129Z,455.00
2023-05-01T02:14:49.120Z,455.00
2023-05-01T02:15:49.485Z,457.00
2023-05-01T02:16:49.100Z,455.00
2023-05-01T02:17:49.129Z,453.00
2023-05-01T02:18:49.108Z,452.00
2023-05-01T02:19:49.108Z,452.00
2023-05-01T02:20:49.210Z,454.00
2023-05-01T02:21:49.139Z,457.00
2023-05-01T02:22:49.128Z,458.00
2023-05-01T02:23:49.125Z,457.00
2023-05-01T02:24:49.122Z,454.00
2023-05-01T02:25:49.441Z,453.00
2023-05-01T02:26:49.151Z,451.00
2023-05-01T02:27:49.149Z,452.00
2023-05-01T02:28:49.164Z,453.00
2023-05-01T02:29:49.172Z,456.00
2023-05-01T02:30:49.423Z,459.00
2023-05-01T02:31:49.206Z,460.00
2023-05-01T02:32:49.159Z,458.00
2023-05-01T02:33:49.126Z,457.00
2023-05-01T02:34:49.133Z,457.00
2023-05-01T02:35:49.453Z,454.00
2023-05-01T02:36:49.142Z,450.00
2023-05-01T02:37:49.146Z,451.00
2023-05-01T02:38:49.141Z,450.00
2023-05-01T02:39:49.169Z,453.00
2023-05-01T02:40:49.438Z,453.00
2023-05-01T02:41:49.179Z,453.00
2023-05-01T02:42:49.191Z,451.00
2023-05-01T02:43:49.156Z,449.00
2023-05-01T02:44:49.150Z,447.00
2023-05-01T02:45:49.279Z,446.00
2023-05-01T02:46:49.213Z,448.00
2023-05-01T02:47:49.148Z,447.00
2023-05-01T02:48:49.198Z,449.00
2023-05-01T02:49:49.204Z,448.00
2023-05-01T02:50:49.205Z,450.00
2023-05-01T02:51:49.163Z,450.00
2023-05-01T02:52:49.166Z,453.00
2023-05-01T02:53:49.193Z,456.00
2023-05-01T02:54:49.174Z,455.00
2023-05-01T02:55:49.492Z,454.00
2023-05-01T02:56:49.184Z,454.00
2023-05-01T02:57:49.155Z,453.00
2023-05-01T02:58:49.120Z,452.00
2023-05-01T02:59:49.162Z,452.00
2023-05-01T03:00:49.172Z,452.00
2023-05-01T03:01:49.184Z,452.00
2023-05-01T03:02:49.222Z,452.00
2023-05-01T03:03:49.159Z,452.00
2023-05-01T03:04:49.291Z,449.00
2023-05-01T03:05:49.128Z,451.00
2023-05-01T03:06:49.279Z,452.00
2023-05-01T03:07:49.178Z,453.00
2023-05-01T03:08:49.152Z,452.00
2023-05-01T03:09:49.184Z,451.00
2023-05-01T03:10:49.137Z,449.00
2023-05-01T03:11:49.145Z,449.00
2023-05-01T03:12:49.153Z,449.00
2023-05-01T03:13:49.110Z,453.00
2023-05-01T03:14:49.122Z,451.00
2023-05-01T03:15:49.448Z,450.00
2023-05-01T03:16:49.224Z,449.00
2023-05-01T03:17:49.168Z,447.00
2023-05-01T03:18:49.134Z,448.00
2023-05-01T03:19:49.151Z,450.00
2023-05-01T03:20:49.449Z,451.00
2023-05-01T03:21:49.103Z,451.00
2023-05-01T03:22:49.110Z,452.00
2023-05-01T03:23:49.147Z,452.00
2023-05-01T03:24:49.131Z,452.00
2023-05-01T03:25:49.104Z,451.00
2023-05-01T03:26:49.154Z,451.00
2023-05-01T03:27:49.157Z,451.00
2023-05-01T03:28:49.126Z,451.00
2023-05-01T03:29:49.085Z,450.00
2023-05-01T03:30:49.474Z,453.00
2023-05-01T03:31:49.139Z,451.00
2023-05-01T03:32:49.205Z,453.00
2023-05-01T03:33:49.128Z,454.00
2023-05-01T03:34:49.129Z,452.00
2023-05-01T03:35:49.251Z,451.00
2023-05-01T03:36:49.161Z,453.00
2023-05-01T03:37:49.168Z,456.00
2023-05-01T03:38:49.121Z,457.00
2023-05-01T03:39:49.139Z,458.00
2023-05-01T03:40:49.513Z,453.00
2023-05-01T03:41:49.145Z,453.00
2023-05-01T03:42:49.145Z,452.00
2023-05-01T03:43:49.168Z,452.00
2023-05-01T03:44:49.142Z,452.00
2023-05-01T03:45:49.185Z,451.00
2023-05-01T03:46:49.149Z,452.00
2023-05-01T03:47:49.184Z,450.00
2023-05-01T03:48:49.141Z,450.00
2023-05-01T03:49:49.196Z,452.00
2023-05-01T03:50:49.120Z,452.00
2023-05-01T03:51:49.129Z,456.00
2023-05-01T03:52:49.167Z,459.00
2023-05-01T03:53:49.134Z,457.00
2023-05-01T03:54:49.133Z,458.00
2023-05-01T03:55:49.143Z,459.00
2023-05-01T03:56:49.150Z,460.00
2023-05-01T03:57:49.195Z,458.00
2023-05-01T03:58:49.214Z,457.00
2023-05-01T03:59:49.169Z,456.00
2023-05-01T04:00:49.193Z,456.00
2023-05-01T04:01:49.481Z,456.00
2023-05-01T04:02:49.470Z,453.00
2023-05-01T04:03:49.366Z,452.00
2023-05-01T04:04:49.187Z,452.00
2023-05-01T04:05:49.201Z,453.00
2023-05-01T04:06:49.357Z,455.00
2023-05-01T04:07:49.151Z,455.00
2023-05-01T04:08:49.175Z,455.00
2023-05-01T04:09:49.180Z,455.00
2023-05-01T04:10:49.230Z,458.00
2023-05-01T04:11:49.212Z,457.00
2023-05-01T04:12:49.232Z,456.00
2023-05-01T04:13:49.205Z,456.00
2023-05-01T04:14:49.267Z,455.00
2023-05-01T04:15:49.278Z,453.00
2023-05-01T04:16:49.290Z,452.00
2023-05-01T04:17:49.283Z,452.00
2023-05-01T04:18:49.275Z,453.00
2023-05-01T04:19:49.211Z,455.00
2023-05-01T04:20:49.293Z,458.00
2023-05-01T04:21:49.260Z,459.00
2023-05-01T04:22:49.321Z,458.00
2023-05-01T04:23:49.296Z,453.00
2023-05-01T04:24:49.286Z,456.00
2023-05-01T04:25:49.168Z,459.00
2023-05-01T04:26:49.194Z,462.00
2023-05-01T04:27:49.222Z,462.00
2023-05-01T04:28:49.232Z,462.00
2023-05-01T04:29:49.202Z,463.00
2023-05-01T04:30:49.213Z,466.00
2023-05-01T04:31:49.361Z,466.00
2023-05-01T04:32:49.213Z,464.00
2023-05-01T04:33:49.243Z,461.00
2023-05-01T04:34:49.196Z,460.00
2023-05-01T04:35:49.213Z,459.00
2023-05-01T04:36:49.214Z,460.00
2023-05-01T04:37:49.216Z,460.00
2023-05-01T04:38:49.248Z,460.00
2023-05-01T04:39:49.252Z,460.00
2023-05-01T04:40:49.187Z,464.00
2023-05-01T04:41:49.258Z,465.00
2023-05-01T04:42:49.273Z,464.00
2023-05-01T04:43:49.216Z,465.00
2023-05-01T04:44:49.203Z,467.00
2023-05-01T04:45:49.195Z,470.00
2023-05-01T04:46:49.302Z,468.00
2023-05-01T04:47:49.249Z,468.00
2023-05-01T04:48:49.229Z,469.00
2023-05-01T04:49:49.243Z,467.00
2023-05-01T04:50:49.255Z,466.00
2023-05-01T04:51:49.208Z,468.00
2023-05-01T04:52:49.229Z,467.00
2023-05-01T04:53:49.226Z,467.00
2023-05-01T04:54:49.241Z,466.00
2023-05-01T04:55:49.244Z,469.00
2023-05-01T04:56:49.269Z,470.00
2023-05-01T04:57:49.293Z,470.00
2023-05-01T04:58:49.318Z,471.00
2023-05-01T04:59:49.301Z,470.00
2023-05-01T05:00:49.387Z,470.00
2023-05-01T05:01:49.354Z,470.00
2023-05-01T05:02:49.409Z,470.00
2023-05-01T05:03:50.295Z,471.00
2023-05-01T05:04:49.397Z,471.00
2023-05-01T05:05:49.398Z,469.00
2023-05-01T05:06:49.470Z,465.00
2023-05-01T05:07:49.424Z,467.00
2023-05-01T05:08:49.457Z,466.00
2023-05-01T05:09:49.487Z,465.00
2023-05-01T05:10:49.493Z,465.00
2023-05-01T05:11:49.540Z,466.00
2023-05-01T05:12:49.672Z,467.00
2023-05-01T05:13:49.681Z,467.00
2023-05-01T05:14:49.700Z,470.00
2023-05-01T05:15:49.684Z,470.00
2023-05-01T05:16:50.197Z,471.00
2023-05-01T05:17:49.867Z,471.00
2023-05-01T05:18:49.766Z,473.00
2023-05-01T05:19:49.757Z,477.00
2023-05-01T05:20:49.805Z,480.00
2023-05-01T05:21:49.921Z,479.00
2023-05-01T05:22:49.849Z,479.00
2023-05-01T05:23:49.936Z,476.00
2023-05-01T05:24:49.943Z,476.00
2023-05-01T05:25:49.965Z,481.00
2023-05-01T05:26:50.007Z,481.00
2023-05-01T05:27:50.022Z,480.00
2023-05-01T05:28:50.065Z,481.00
2023-05-01T05:29:50.109Z,484.00
2023-05-01T05:30:50.182Z,484.00
2023-05-01T05:31:50.186Z,484.00
2023-05-01T05:32:50.255Z,484.00
2023-05-01T05:33:50.230Z,484.00
2023-05-01T05:34:50.316Z,484.00
2023-05-01T05:35:50.321Z,483.00
2023-05-01T05:36:50.356Z,484.00
2023-05-01T05:37:50.354Z,488.00
2023-05-01T05:38:50.413Z,486.00
2023-05-01T05:39:50.447Z,485.00
2023-05-01T05:40:50.504Z,487.00
2023-05-01T05:41:50.591Z,487.00
2023-05-01T05:42:50.583Z,488.00
2023-05-01T05:43:50.626Z,488.00
2023-05-01T05:44:50.607Z,489.00
2023-05-01T05:45:50.684Z,489.00
2023-05-01T05:46:50.734Z,488.00
2023-05-01T05:47:50.761Z,486.00
2023-05-01T05:48:50.793Z,488.00
2023-05-01T05:49:50.818Z,488.00
2023-05-01T05:50:50.861Z,490.00
2023-05-01T05:51:50.868Z,490.00
2023-05-01T05:52:50.951Z,491.00
2023-05-01T05:53:50.957Z,491.00
2023-05-01T05:54:50.987Z,490.00
2023-05-01T05:55:51.073Z,489.00
2023-05-01T05:56:51.086Z,490.00
2023-05-01T05:57:51.115Z,491.00
2023-05-01T05:58:51.149Z,492.00
2023-05-01T05:59:51.207Z,492.00
2023-05-01T06:00:51.212Z,492.00
2023-05-01T06:01:51.325Z,492.00
2023-05-01T06:02:51.398Z,490.00
2023-05-01T06:03:51.356Z,489.00
2023-05-01T06:04:51.368Z,490.00
2023-05-01T06:05:51.428Z,491.00
2023-05-01T06:06:51.564Z,492.00
2023-05-01T06:07:51.498Z,493.00
2023-05-01T06:08:51.538Z,495.00
2023-05-01T06:09:51.581Z,495.00
2023-05-01T06:10:51.628Z,494.00
2023-05-01T06:11:51.665Z,492.00
2023-05-01T06:12:56.302Z,491.00
2023-05-01T06:13:52.690Z,493.00
2023-05-01T06:14:51.723Z,489.00
2023-05-01T06:15:51.686Z,490.00
2023-05-01T06:16:51.628Z,492.00
2023-05-01T06:17:51.687Z,495.00
2023-05-01T06:18:51.682Z,497.00
2023-05-01T06:19:51.651Z,501.00
2023-05-01T06:20:51.638Z,502.00
2023-05-01T06:21:51.691Z,501.00
2023-05-01T06:22:51.600Z,502.00
2023-05-01T06:23:51.616Z,497.00
2023-05-01T06:24:51.614Z,498.00
2023-05-01T06:25:51.692Z,498.00
2023-05-01T06:26:51.624Z,496.00
2023-05-01T06:27:51.656Z,499.00
2023-05-01T06:28:51.731Z,497.00
2023-05-01T06:29:51.727Z,497.00
2023-05-01T06:30:51.758Z,497.00
2023-05-01T06:31:51.887Z,495.00
2023-05-01T06:32:51.888Z,497.00
2023-05-01T06:33:51.879Z,498.00
2023-05-01T06:34:51.920Z,498.00
2023-05-01T06:35:51.952Z,498.00
2023-05-01T06:36:51.959Z,497.00
2023-05-01T06:37:52.010Z,496.00
2023-05-01T06:38:52.046Z,496.00
2023-05-01T06:39:52.098Z,500.00
2023-05-01T06:40:52.094Z,500.00
2023-05-01T06:41:52.532Z,499.00
2023-05-01T06:42:52.185Z,499.00
2023-05-01T06:43:52.219Z,499.00
2023-05-01T06:44:53.006Z,501.00
2023-05-01T06:45:52.275Z,501.00
2023-05-01T06:46:52.549Z,502.00
2023-05-01T06:47:52.358Z,500.00
2023-05-01T06:48:52.320Z,500.00
2023-05-01T06:49:52.405Z,502.00
2023-05-01T06:50:52.410Z,502.00
2023-05-01T06:51:52.466Z,501.00
2023-05-01T06:52:52.477Z,499.00
2023-05-01T06:53:52.530Z,498.00
2023-05-01T06:54:52.538Z,495.00
2023-05-01T06:55:52.579Z,494.00
2023-05-01T06:56:52.618Z,495.00
2023-05-01T06:57:52.659Z,492.00
2023-05-01T06:58:52.675Z,494.00
2023-05-01T06:59:52.744Z,491.00
2023-05-01T07:00:52.806Z,487.00
2023-05-01T07:01:52.861Z,489.00
2023-05-01T07:02:52.907Z,490.00
2023-05-01T07:03:52.794Z,491.00
2023-05-01T07:04:52.872Z,491.00
2023-05-01T07:05:52.852Z,490.00
2023-05-01T07:06:53.023Z,492.00
2023-05-01T07:08:01.237Z,494.00
2023-05-01T07:08:53.920Z,492.00
2023-05-01T07:09:52.897Z,491.00
2023-05-01T07:10:52.911Z,491.00
2023-05-01T07:11:52.920Z,495.00
2023-05-01T07:12:52.929Z,496.00
2023-05-01T07:13:52.879Z,495.00
2023-05-01T07:14:52.893Z,496.00
2023-05-01T07:15:54.442Z,492.00
2023-05-01T07:16:52.961Z,492.00
2023-05-01T07:17:53.162Z,492.00
2023-05-01T07:18:52.827Z,488.00
2023-05-01T07:19:52.829Z,486.00
2023-05-01T07:20:52.802Z,485.00
2023-05-01T07:21:52.839Z,487.00
2023-05-01T07:22:52.806Z,487.00
2023-05-01T07:23:52.833Z,489.00
2023-05-01T07:24:52.896Z,490.00
2023-05-01T07:25:52.911Z,493.00
2023-05-01T07:26:52.924Z,493.00
2023-05-01T07:27:52.953Z,493.00
2023-05-01T07:28:52.987Z,490.00
2023-05-01T07:29:52.991Z,488.00
2023-05-01T07:30:53.115Z,488.00
2023-05-01T07:31:53.094Z,489.00
2023-05-01T07:32:53.572Z,488.00
2023-05-01T07:33:54.255Z,490.00
2023-05-01T07:34:53.181Z,488.00
2023-05-01T07:35:53.191Z,485.00
2023-05-01T07:36:53.228Z,486.00
2023-05-01T07:37:53.262Z,485.00
2023-05-01T07:38:53.296Z,488.00
2023-05-01T07:39:53.342Z,491.00
2023-05-01T07:40:53.331Z,490.00
2023-05-01T07:41:53.351Z,491.00
2023-05-01T07:42:54.554Z,491.00
2023-05-01T07:43:53.437Z,492.00
2023-05-01T07:44:53.441Z,490.00
2023-05-01T07:45:53.487Z,488.00
2023-05-01T07:46:53.500Z,486.00
2023-05-01T07:47:53.585Z,482.00
2023-05-01T07:48:53.552Z,485.00
2023-05-01T07:49:53.624Z,485.00
2023-05-01T07:50:53.584Z,486.00
2023-05-01T07:51:53.617Z,484.00
2023-05-01T07:52:54.073Z,481.00
2023-05-01T07:53:53.706Z,483.00
2023-05-01T07:54:53.747Z,482.00
2023-05-01T07:55:53.729Z,481.00
2023-05-01T07:56:53.768Z,482.00
2023-05-01T07:57:54.015Z,480.00
2023-05-01T07:58:53.811Z,478.00
2023-05-01T07:59:54.051Z,479.00
2023-05-01T08:00:53.826Z,478.00
2023-05-01T08:01:53.917Z,477.00
2023-05-01T08:02:54.037Z,476.00
2023-05-01T08:03:54.070Z,475.00
2023-05-01T08:04:54.074Z,475.00
2023-05-01T08:05:53.950Z,476.00
2023-05-01T08:06:54.054Z,477.00
2023-05-01T08:07:54.047Z,477.00
2023-05-01T08:08:54.018Z,475.00
2023-05-01T08:09:54.162Z,475.00
2023-05-01T08:10:54.047Z,475.00
2023-05-01T08:11:54.080Z,474.00
2023-05-01T08:12:54.152Z,476.00
2023-05-01T08:13:54.113Z,477.00
2023-05-01T08:14:54.137Z,473.00
2023-05-01T08:15:54.228Z,472.00
2023-05-01T08:16:54.188Z,472.00
2023-05-01T08:17:54.219Z,472.00
2023-05-01T08:18:54.226Z,472.00
2023-05-01T08:19:54.412Z,474.00
2023-05-01T08:20:54.250Z,472.00
2023-05-01T08:21:54.283Z,473.00
2023-05-01T08:22:54.280Z,475.00
2023-05-01T08:23:54.269Z,475.00
2023-05-01T08:24:54.298Z,473.00
2023-05-01T08:25:54.315Z,475.00
2023-05-01T08:26:54.310Z,473.00
2023-05-01T08:27:54.357Z,471.00
2023-05-01T08:28:54.364Z,472.00
2023-05-01T08:29:54.676Z,471.00
2023-05-01T08:30:54.390Z,470.00
2023-05-01T08:31:54.405Z,469.00
2023-05-01T08:32:54.656Z,467.00
2023-05-01T08:33:54.427Z,468.00
2023-05-01T08:34:54.428Z,468.00
2023-05-01T08:35:54.462Z,468.00
2023-05-01T08:36:54.461Z,466.00
2023-05-01T08:37:54.466Z,465.00
2023-05-01T08:38:54.507Z,467.00
2023-05-01T08:39:54.632Z,468.00
2023-05-01T08:40:54.563Z,469.00
2023-05-01T08:41:54.607Z,469.00
2023-05-01T08:42:54.582Z,469.00
2023-05-01T08:43:54.579Z,470.00
2023-05-01T08:44:54.613Z,469.00
2023-05-01T08:45:54.626Z,466.00
2023-05-01T08:46:54.706Z,462.00
2023-05-01T08:47:55.219Z,462.00
2023-05-01T08:48:54.672Z,463.00
2023-05-01T08:49:54.783Z,462.00
2023-05-01T08:50:54.708Z,460.00
2023-05-01T08:51:54.714Z,460.00
2023-05-01T08:52:55.076Z,458.00
2023-05-01T08:53:54.724Z,457.00
2023-05-01T08:54:54.755Z,458.00
2023-05-01T08:55:54.781Z,458.00
2023-05-01T08:56:54.795Z,459.00
2023-05-01T08:57:54.789Z,457.00
2023-05-01T08:58:54.804Z,460.00
2023-05-01T08:59:55.033Z,462.00
2023-05-01T09:00:54.877Z,461.00
2023-05-01T09:01:54.829Z,461.00
2023-05-01T09:02:54.864Z,464.00
2023-05-01T09:03:54.896Z,466.00
2023-05-01T09:04:54.849Z,468.00
2023-05-01T09:05:54.859Z,471.00
2023-05-01T09:06:54.870Z,471.00
2023-05-01T09:07:54.876Z,472.00
2023-05-01T09:08:54.873Z,472.00
2023-05-01T09:09:55.038Z,469.00
2023-05-01T09:10:54.870Z,468.00
2023-05-01T09:11:54.899Z,468.00
2023-05-01T09:12:54.887Z,469.00
2023-05-01T09:13:54.895Z,467.00
2023-05-01T09:14:54.889Z,469.00
2023-05-01T09:15:55.047Z,470.00
2023-05-01T09:16:55.062Z,470.00
2023-05-01T09:17:55.197Z,470.00
2023-05-01T09:18:55.005Z,469.00
2023-05-01T09:19:55.093Z,470.00
2023-05-01T09:20:55.020Z,469.00
2023-05-01T09:21:54.972Z,469.00
2023-05-01T09:22:55.064Z,468.00
2023-05-01T09:23:55.009Z,470.00
2023-05-01T09:24:54.991Z,469.00
2023-05-01T09:25:55.055Z,465.00
2023-05-01T09:26:55.564Z,465.00
2023-05-01T09:27:55.067Z,465.00
2023-05-01T09:28:55.012Z,465.00
2023-05-01T09:29:55.250Z,467.00
2023-05-01T09:30:55.034Z,466.00
2023-05-01T09:31:55.102Z,467.00
2023-05-01T09:32:55.147Z,467.00
2023-05-01T09:33:55.135Z,467.00
2023-05-01T09:34:55.113Z,467.00
2023-05-01T09:35:55.160Z,466.00
2023-05-01T09:36:55.119Z,466.00
2023-05-01T09:37:55.131Z,466.00
2023-05-01T09:38:55.150Z,464.00
2023-05-01T09:39:55.276Z,464.00
2023-05-01T09:40:55.143Z,464.00
2023-05-01T09:41:55.118Z,466.00
2023-05-01T09:42:55.113Z,466.00
2023-05-01T09:43:55.131Z,466.00
2023-05-01T09:44:55.469Z,464.00
2023-05-01T09:45:55.197Z,465.00
2023-05-01T09:46:55.134Z,465.00
2023-05-01T09:47:55.210Z,463.00
2023-05-01T09:48:55.175Z,462.00
2023-05-01T09:49:55.401Z,462.00
2023-05-01T09:50:55.223Z,465.00
2023-05-01T09:51:55.194Z,464.00
2023-05-01T09:52:55.245Z,463.00
2023-05-01T09:53:55.197Z,461.00
2023-05-01T09:54:55.260Z,459.00
2023-05-01T09:55:55.295Z,458.00
2023-05-01T09:56:55.251Z,458.00
2023-05-01T09:57:55.274Z,457.00
2023-05-01T09:58:55.244Z,454.00
2023-05-01T09:59:55.455Z,456.00
2023-05-01T10:00:55.244Z,457.00
2023-05-01T10:01:55.370Z,457.00
2023-05-01T10:02:55.539Z,455.00
2023-05-01T10:03:55.396Z,456.00
2023-05-01T10:04:55.268Z,459.00
2023-05-01T10:05:55.280Z,461.00
2023-05-01T10:06:55.422Z,462.00
2023-05-01T10:07:55.241Z,463.00
2023-05-01T10:08:55.253Z,463.00
2023-05-01T10:09:55.565Z,460.00
2023-05-01T10:10:55.222Z,459.00
2023-05-01T10:11:55.225Z,457.00
2023-05-01T10:12:55.709Z,458.00
2023-05-01T10:13:55.219Z,458.00
2023-05-01T10:14:55.215Z,458.00
2023-05-01T10:15:55.219Z,456.00
2023-05-01T10:16:55.246Z,455.00
2023-05-01T10:17:55.348Z,452.00
2023-05-01T10:18:55.241Z,453.00
2023-05-01T10:19:55.461Z,454.00
2023-05-01T10:20:55.225Z,455.00
2023-05-01T10:21:55.177Z,453.00
2023-05-01T10:22:55.231Z,454.00
2023-05-01T10:23:55.263Z,454.00
2023-05-01T10:24:55.225Z,453.00
2023-05-01T10:25:55.204Z,451.00
2023-05-01T10:26:55.216Z,452.00
2023-05-01T10:27:55.217Z,453.00
2023-05-01T10:28:55.199Z,454.00
2023-05-01T10:29:55.371Z,457.00
2023-05-01T10:30:55.243Z,460.00
2023-05-01T10:31:55.284Z,460.00
2023-05-01T10:32:55.592Z,462.00
2023-05-01T10:33:55.155Z,461.00
2023-05-01T10:34:55.525Z,462.00
2023-05-01T10:35:55.227Z,463.00
2023-05-01T10:36:55.171Z,461.00
2023-05-01T10:37:55.204Z,461.00
2023-05-01T10:38:55.199Z,459.00
2023-05-01T10:39:55.209Z,458.00
2023-05-01T10:40:55.201Z,457.00
2023-05-01T10:41:55.244Z,458.00
2023-05-01T10:42:55.201Z,459.00
2023-05-01T10:43:55.180Z,460.00
2023-05-01T10:44:55.429Z,459.00
2023-05-01T10:45:55.269Z,456.00
2023-05-01T10:46:55.333Z,455.00
2023-05-01T10:47:55.247Z,457.00
2023-05-01T10:48:55.170Z,459.00
2023-05-01T10:49:55.167Z,461.00
2023-05-01T10:50:55.200Z,462.00
2023-05-01T10:51:55.176Z,462.00
2023-05-01T10:52:55.176Z,462.00
2023-05-01T10:53:55.189Z,462.00
2023-05-01T10:54:55.344Z,463.00
2023-05-01T10:55:55.165Z,463.00
2023-05-01T10:56:55.174Z,461.00
2023-05-01T10:57:55.177Z,460.00
2023-05-01T10:58:55.179Z,461.00
2023-05-01T10:59:55.189Z,462.00
2023-05-01T11:00:55.169Z,461.00
2023-05-01T11:01:55.200Z,459.00
2023-05-01T11:02:55.221Z,458.00
2023-05-01T11:03:55.215Z,453.00
2023-05-01T11:04:55.283Z,452.00
2023-05-01T11:05:55.185Z,453.00
2023-05-01T11:06:55.177Z,452.00
2023-05-01T11:07:55.178Z,450.00
2023-05-01T11:08:55.156Z,450.00
2023-05-01T11:09:55.346Z,452.00
2023-05-01T11:10:55.177Z,449.00
2023-05-01T11:11:55.166Z,451.00
2023-05-01T11:12:55.135Z,453.00
2023-05-01T11:13:55.215Z,453.00
2023-05-01T11:14:55.321Z,454.00
2023-05-01T11:15:55.262Z,454.00
2023-05-01T11:16:55.317Z,453.00
2023-05-01T11:17:55.257Z,455.00
2023-05-01T11:18:55.338Z,456.00
2023-05-01T11:19:55.317Z,456.00
2023-05-01T11:20:55.336Z,455.00
2023-05-01T11:21:55.354Z,454.00
2023-05-01T11:22:55.359Z,452.00
2023-05-01T11:23:55.387Z,451.00
2023-05-01T11:24:55.612Z,451.00
2023-05-01T11:25:55.487Z,454.00
2023-05-01T11:26:55.474Z,454.00
2023-05-01T11:27:55.536Z,453.00
2023-05-01T11:28:55.534Z,454.00
2023-05-01T11:29:55.605Z,455.00
2023-05-01T11:30:55.616Z,450.00
2023-05-01T11:31:55.749Z,449.00
2023-05-01T11:32:55.700Z,449.00
2023-05-01T11:33:55.732Z,446.00
2023-05-01T11:34:56.082Z,445.00
2023-05-01T11:35:55.856Z,446.00
2023-05-01T11:36:55.817Z,449.00
2023-05-01T11:37:55.915Z,449.00
2023-05-01T11:38:55.803Z,452.00
2023-05-01T11:39:55.861Z,455.00
2023-05-01T11:40:55.837Z,456.00
2023-05-01T11:41:55.945Z,454.00
2023-05-01T11:42:55.885Z,453.00
2023-05-01T11:43:55.956Z,454.00
2023-05-01T11:44:56.189Z,453.00
2023-05-01T11:45:56.065Z,452.00
2023-05-01T11:46:55.970Z,452.00
2023-05-01T11:47:56.055Z,451.00
2023-05-01T11:48:56.019Z,448.00
2023-05-01T11:49:56.022Z,449.00
2023-05-01T11:50:56.057Z,450.00
2023-05-01T11:51:56.104Z,452.00
2023-05-01T11:52:56.148Z,451.00
2023-05-01T11:53:56.180Z,451.00
2023-05-01T11:54:56.201Z,451.00
2023-05-01T11:55:56.197Z,450.00
2023-05-01T11:56:56.310Z,451.00
2023-05-01T11:57:56.340Z,452.00
2023-05-01T11:58:56.362Z,447.00
2023-05-01T11:59:56.363Z,449.00
2023-05-01T12:00:56.414Z,449.00
2023-05-01T12:01:56.477Z,448.00
2023-05-01T12:02:56.593Z,448.00
2023-05-01T12:03:56.574Z,447.00
2023-05-01T12:04:56.876Z,447.00
2023-05-01T12:05:56.704Z,444.00
2023-05-01T12:06:56.710Z,443.00
2023-05-01T12:07:56.761Z,442.00
2023-05-01T12:08:56.816Z,442.00
2023-05-01T12:09:56.846Z,444.00
2023-05-01T12:10:56.910Z,448.00
2023-05-01T12:11:56.960Z,449.00
2023-05-01T12:12:57.105Z,450.00
2023-05-01T12:13:57.054Z,450.00
2023-05-01T12:14:57.223Z,452.00
2023-05-01T12:15:57.163Z,451.00
2023-05-01T12:16:57.223Z,451.00
2023-05-01T12:17:57.299Z,454.00
2023-05-01T12:18:57.275Z,452.00
2023-05-01T12:19:57.360Z,453.00
2023-05-01T12:20:57.366Z,454.00
2023-05-01T12:21:57.435Z,454.00
2023-05-01T12:22:57.487Z,457.00
2023-05-01T12:23:57.491Z,456.00
2023-05-01T12:24:57.720Z,455.00
2023-05-01T12:25:57.647Z,455.00
2023-05-01T12:26:57.646Z,456.00
2023-05-01T12:27:57.725Z,457.00
2023-05-01T12:28:57.805Z,459.00